sensor_id;sensor_type;location;lat;lon;timestamp;temperature;humidity
152;DHT22;68;48.792;9.164;2023-06-14T00:01:50;17.20;63.00
152;DHT22;68;48.792;9.164;2023-06-14T00:04:17;17.00;63.50
152;DHT22;68;48.792;9.164;2023-06-14T00:06:46;16.80;62.90
152;DHT22;68;48.792;9.164;2023-06-14T00:09:14;16.80;65.10
152;DHT22;68;48.792;9.164;2023-06-14T00:11:43;16.80;63.30
152;DHT22;68;48.792;9.164;2023-06-14T00:14:10;16.80;65.00
152;DHT22;68;48.792;9.164;2023-06-14T00:16:38;16.80;64.20
152;DHT22;68;48.792;9.164;2023-06-14T00:19:08;16.60;63.70
152;DHT22;68;48.792;9.164;2023-06-14T00:21:35;16.40;64.10
152;DHT22;68;48.792;9.164;2023-06-14T00:24:04;16.40;64.40
152;DHT22;68;48.792;9.164;2023-06-14T00:26:30;16.40;63.90
152;DHT22;68;48.792;9.164;2023-06-14T00:28:57;16.40;64.00
152;DHT22;68;48.792;9.164;2023-06-14T00:31:24;16.40;63.90
152;DHT22;68;48.792;9.164;2023-06-14T00:33:52;16.40;63.20
152;DHT22;68;48.792;9.164;2023-06-14T00:36:19;16.40;64.60
152;DHT22;68;48.792;9.164;2023-06-14T00:38:46;16.60;63.70
152;DHT22;68;48.792;9.164;2023-06-14T00:41:12;16.70;65.50
152;DHT22;68;48.792;9.164;2023-06-14T00:43:39;16.60;63.80
152;DHT22;68;48.792;9.164;2023-06-14T00:46:06;16.40;65.10
152;DHT22;68;48.792;9.164;2023-06-14T00:48:33;16.20;66.50
152;DHT22;68;48.792;9.164;2023-06-14T00:51:02;16.10;65.40
152;DHT22;68;48.792;9.164;2023-06-14T00:53:30;16.00;65.80
152;DHT22;68;48.792;9.164;2023-06-14T00:56:00;15.90;67.90
152;DHT22;68;48.792;9.164;2023-06-14T00:58:27;15.90;66.50
152;DHT22;68;48.792;9.164;2023-06-14T01:00:55;15.90;66.40
152;DHT22;68;48.792;9.164;2023-06-14T01:03:21;15.90;67.10
152;DHT22;68;48.792;9.164;2023-06-14T01:05:49;16.00;67.50
152;DHT22;68;48.792;9.164;2023-06-14T01:08:26;15.90;66.10
152;DHT22;68;48.792;9.164;2023-06-14T01:11:01;15.80;66.20
152;DHT22;68;48.792;9.164;2023-06-14T01:13:33;15.80;66.30
152;DHT22;68;48.792;9.164;2023-06-14T01:16:00;15.70;66.60
152;DHT22;68;48.792;9.164;2023-06-14T01:18:28;15.70;67.60
152;DHT22;68;48.792;9.164;2023-06-14T01:20:55;15.60;67.00
152;DHT22;68;48.792;9.164;2023-06-14T01:23:24;15.60;66.50
152;DHT22;68;48.792;9.164;2023-06-14T01:25:58;15.60;69.00
152;DHT22;68;48.792;9.164;2023-06-14T01:28:29;15.60;67.60
152;DHT22;68;48.792;9.164;2023-06-14T01:31:00;15.50;67.70
152;DHT22;68;48.792;9.164;2023-06-14T01:33:30;15.40;67.30
152;DHT22;68;48.792;9.164;2023-06-14T01:35:58;15.40;69.40
152;DHT22;68;48.792;9.164;2023-06-14T01:38:27;15.40;67.80
152;DHT22;68;48.792;9.164;2023-06-14T01:40:56;15.40;68.10
152;DHT22;68;48.792;9.164;2023-06-14T01:43:25;15.30;67.90
152;DHT22;68;48.792;9.164;2023-06-14T01:45:53;15.30;69.60
152;DHT22;68;48.792;9.164;2023-06-14T01:48:21;15.20;68.40
152;DHT22;68;48.792;9.164;2023-06-14T01:50:48;15.20;68.70
152;DHT22;68;48.792;9.164;2023-06-14T01:53:15;15.20;69.80
152;DHT22;68;48.792;9.164;2023-06-14T01:55:43;15.20;69.80
152;DHT22;68;48.792;9.164;2023-06-14T01:58:13;15.10;70.00
152;DHT22;68;48.792;9.164;2023-06-14T02:00:41;15.10;70.70
152;DHT22;68;48.792;9.164;2023-06-14T02:03:10;15.10;69.20
152;DHT22;68;48.792;9.164;2023-06-14T02:05:38;15.00;69.30
152;DHT22;68;48.792;9.164;2023-06-14T02:08:05;15.00;70.30
152;DHT22;68;48.792;9.164;2023-06-14T02:10:32;14.90;69.70
152;DHT22;68;48.792;9.164;2023-06-14T02:13:00;14.80;71.80
152;DHT22;68;48.792;9.164;2023-06-14T02:15:27;14.80;70.40
152;DHT22;68;48.792;9.164;2023-06-14T02:17:59;14.70;70.40
152;DHT22;68;48.792;9.164;2023-06-14T02:20:27;14.60;70.70
152;DHT22;68;48.792;9.164;2023-06-14T02:22:53;14.60;70.90
152;DHT22;68;48.792;9.164;2023-06-14T02:25:20;14.60;71.80
152;DHT22;68;48.792;9.164;2023-06-14T02:27:47;14.60;70.80
152;DHT22;68;48.792;9.164;2023-06-14T02:30:15;14.60;70.60
152;DHT22;68;48.792;9.164;2023-06-14T02:32:42;14.60;71.10
152;DHT22;68;48.792;9.164;2023-06-14T02:35:09;14.50;71.10
152;DHT22;68;48.792;9.164;2023-06-14T02:37:36;14.60;72.90
152;DHT22;68;48.792;9.164;2023-06-14T02:40:04;14.50;72.00
152;DHT22;68;48.792;9.164;2023-06-14T02:42:31;14.50;71.80
152;DHT22;68;48.792;9.164;2023-06-14T02:44:58;14.40;72.60
152;DHT22;68;48.792;9.164;2023-06-14T02:47:27;14.40;71.90
152;DHT22;68;48.792;9.164;2023-06-14T02:49:54;14.40;72.80
152;DHT22;68;48.792;9.164;2023-06-14T02:52:21;14.40;72.00
152;DHT22;68;48.792;9.164;2023-06-14T02:54:50;14.40;72.10
152;DHT22;68;48.792;9.164;2023-06-14T02:57:17;14.40;72.50
152;DHT22;68;48.792;9.164;2023-06-14T02:59:44;14.40;72.60
152;DHT22;68;48.792;9.164;2023-06-14T03:02:11;14.30;72.50
152;DHT22;68;48.792;9.164;2023-06-14T03:04:39;14.30;72.40
152;DHT22;68;48.792;9.164;2023-06-14T03:07:07;14.30;72.40
152;DHT22;68;48.792;9.164;2023-06-14T03:09:35;14.30;72.80
152;DHT22;68;48.792;9.164;2023-06-14T03:12:03;14.40;73.40
152;DHT22;68;48.792;9.164;2023-06-14T03:14:32;14.50;74.70
152;DHT22;68;48.792;9.164;2023-06-14T03:17:00;14.80;74.10
152;DHT22;68;48.792;9.164;2023-06-14T03:19:27;15.10;73.40
152;DHT22;68;48.792;9.164;2023-06-14T03:21:55;15.30;72.50
152;DHT22;68;48.792;9.164;2023-06-14T03:24:23;15.40;71.50
152;DHT22;68;48.792;9.164;2023-06-14T03:26:49;15.10;71.90
152;DHT22;68;48.792;9.164;2023-06-14T03:29:16;14.80;73.10
152;DHT22;68;48.792;9.164;2023-06-14T03:31:57;14.60;74.00
152;DHT22;68;48.792;9.164;2023-06-14T03:34:24;14.20;73.90
152;DHT22;68;48.792;9.164;2023-06-14T03:36:51;14.20;73.90
152;DHT22;68;48.792;9.164;2023-06-14T03:39:20;14.10;74.30
152;DHT22;68;48.792;9.164;2023-06-14T03:41:47;14.10;75.80
152;DHT22;68;48.792;9.164;2023-06-14T03:44:15;14.00;75.60
152;DHT22;68;48.792;9.164;2023-06-14T03:46:42;14.30;76.00
152;DHT22;68;48.792;9.164;2023-06-14T03:49:09;14.70;74.30
152;DHT22;68;48.792;9.164;2023-06-14T03:51:37;14.90;74.30
152;DHT22;68;48.792;9.164;2023-06-14T03:54:05;14.80;74.30
152;DHT22;68;48.792;9.164;2023-06-14T03:56:34;14.90;75.00
152;DHT22;68;48.792;9.164;2023-06-14T03:59:01;14.90;74.60
152;DHT22;68;48.792;9.164;2023-06-14T04:01:28;14.60;74.60
152;DHT22;68;48.792;9.164;2023-06-14T04:03:56;14.40;77.20
152;DHT22;68;48.792;9.164;2023-06-14T04:06:24;14.30;76.10
152;DHT22;68;48.792;9.164;2023-06-14T04:08:58;14.20;76.60
152;DHT22;68;48.792;9.164;2023-06-14T04:11:27;14.10;77.50
152;DHT22;68;48.792;9.164;2023-06-14T04:13:55;14.00;77.10
152;DHT22;68;48.792;9.164;2023-06-14T04:16:22;14.00;77.50
152;DHT22;68;48.792;9.164;2023-06-14T04:18:49;14.00;78.60
152;DHT22;68;48.792;9.164;2023-06-14T04:21:17;14.00;79.70
152;DHT22;68;48.792;9.164;2023-06-14T04:23:44;14.10;78.50
152;DHT22;68;48.792;9.164;2023-06-14T04:26:11;14.10;78.80
152;DHT22;68;48.792;9.164;2023-06-14T04:28:38;14.40;79.50
152;DHT22;68;48.792;9.164;2023-06-14T04:31:07;14.60;77.90
152;DHT22;68;48.792;9.164;2023-06-14T04:33:35;14.60;78.70
152;DHT22;68;48.792;9.164;2023-06-14T04:36:08;14.90;77.50
152;DHT22;68;48.792;9.164;2023-06-14T04:38:35;14.80;76.60
152;DHT22;68;48.792;9.164;2023-06-14T04:41:02;14.80;78.60
152;DHT22;68;48.792;9.164;2023-06-14T04:43:29;14.70;77.30
152;DHT22;68;48.792;9.164;2023-06-14T04:45:57;14.60;77.90
152;DHT22;68;48.792;9.164;2023-06-14T04:48:25;14.40;77.20
152;DHT22;68;48.792;9.164;2023-06-14T04:50:52;14.40;77.80
152;DHT22;68;48.792;9.164;2023-06-14T04:53:20;14.50;79.00
152;DHT22;68;48.792;9.164;2023-06-14T04:55:48;14.60;78.10
152;DHT22;68;48.792;9.164;2023-06-14T04:58:16;14.50;76.90
152;DHT22;68;48.792;9.164;2023-06-14T05:00:42;14.50;75.60
152;DHT22;68;48.792;9.164;2023-06-14T05:03:10;14.70;75.90
152;DHT22;68;48.792;9.164;2023-06-14T05:05:39;14.90;77.80
152;DHT22;68;48.792;9.164;2023-06-14T05:08:07;14.90;75.50
152;DHT22;68;48.792;9.164;2023-06-14T05:10:34;14.90;76.30
152;DHT22;68;48.792;9.164;2023-06-14T05:13:01;15.20;75.50
152;DHT22;68;48.792;9.164;2023-06-14T05:15:28;15.30;72.60
152;DHT22;68;48.792;9.164;2023-06-14T05:17:55;15.30;72.40
152;DHT22;68;48.792;9.164;2023-06-14T05:20:22;15.30;74.80
152;DHT22;68;48.792;9.164;2023-06-14T05:22:52;15.70;73.20
152;DHT22;68;48.792;9.164;2023-06-14T05:25:18;15.90;72.60
152;DHT22;68;48.792;9.164;2023-06-14T05:27:45;16.10;71.80
152;DHT22;68;48.792;9.164;2023-06-14T05:30:13;16.00;70.80
152;DHT22;68;48.792;9.164;2023-06-14T05:32:40;16.00;72.70
152;DHT22;68;48.792;9.164;2023-06-14T05:35:08;16.00;73.80
152;DHT22;68;48.792;9.164;2023-06-14T05:37:34;16.20;72.20
152;DHT22;68;48.792;9.164;2023-06-14T05:40:03;16.20;72.10
152;DHT22;68;48.792;9.164;2023-06-14T05:42:31;16.10;73.20
152;DHT22;68;48.792;9.164;2023-06-14T05:44:58;16.00;72.90
152;DHT22;68;48.792;9.164;2023-06-14T05:47:25;16.00;73.30
152;DHT22;68;48.792;9.164;2023-06-14T05:49:53;16.00;73.40
152;DHT22;68;48.792;9.164;2023-06-14T05:52:20;16.00;73.80
152;DHT22;68;48.792;9.164;2023-06-14T05:54:47;16.10;73.10
152;DHT22;68;48.792;9.164;2023-06-14T05:57:16;16.10;73.50
152;DHT22;68;48.792;9.164;2023-06-14T05:59:42;16.30;73.50
152;DHT22;68;48.792;9.164;2023-06-14T06:02:09;16.40;72.70
152;DHT22;68;48.792;9.164;2023-06-14T06:04:36;16.50;72.00
152;DHT22;68;48.792;9.164;2023-06-14T06:07:03;16.70;71.40
152;DHT22;68;48.792;9.164;2023-06-14T06:09:30;16.50;71.10
152;DHT22;68;48.792;9.164;2023-06-14T06:11:57;16.40;71.70
152;DHT22;68;48.792;9.164;2023-06-14T06:14:25;16.40;69.90
152;DHT22;68;48.792;9.164;2023-06-14T06:16:53;16.40;71.20
152;DHT22;68;48.792;9.164;2023-06-14T06:19:20;16.40;71.40
152;DHT22;68;48.792;9.164;2023-06-14T06:21:47;16.60;71.00
152;DHT22;68;48.792;9.164;2023-06-14T06:24:13;16.80;70.90
152;DHT22;68;48.792;9.164;2023-06-14T06:26:40;17.00;70.20
152;DHT22;68;48.792;9.164;2023-06-14T06:29:07;17.00;70.30
152;DHT22;68;48.792;9.164;2023-06-14T06:31:35;17.20;70.20
152;DHT22;68;48.792;9.164;2023-06-14T06:34:02;17.20;69.40
152;DHT22;68;48.792;9.164;2023-06-14T06:36:29;17.20;69.10
152;DHT22;68;48.792;9.164;2023-06-14T06:38:56;17.10;68.50
152;DHT22;68;48.792;9.164;2023-06-14T06:41:22;17.30;68.60
152;DHT22;68;48.792;9.164;2023-06-14T06:43:49;17.20;67.10
152;DHT22;68;48.792;9.164;2023-06-14T06:46:16;17.40;67.70
152;DHT22;68;48.792;9.164;2023-06-14T06:48:45;17.40;67.90
152;DHT22;68;48.792;9.164;2023-06-14T06:51:12;17.50;65.80
152;DHT22;68;48.792;9.164;2023-06-14T06:53:41;17.50;66.00
152;DHT22;68;48.792;9.164;2023-06-14T06:56:08;17.40;67.20
152;DHT22;68;48.792;9.164;2023-06-14T06:58:35;17.60;69.40
152;DHT22;68;48.792;9.164;2023-06-14T07:01:01;17.50;68.30
152;DHT22;68;48.792;9.164;2023-06-14T07:03:28;17.60;69.20
152;DHT22;68;48.792;9.164;2023-06-14T07:05:57;17.70;68.70
152;DHT22;68;48.792;9.164;2023-06-14T07:08:23;17.90;65.40
152;DHT22;68;48.792;9.164;2023-06-14T07:10:50;18.10;64.90
152;DHT22;68;48.792;9.164;2023-06-14T07:13:17;18.10;65.70
152;DHT22;68;48.792;9.164;2023-06-14T07:15:44;18.30;66.00
152;DHT22;68;48.792;9.164;2023-06-14T07:18:11;18.30;65.30
152;DHT22;68;48.792;9.164;2023-06-14T07:20:38;18.50;65.00
152;DHT22;68;48.792;9.164;2023-06-14T07:23:07;18.40;66.10
152;DHT22;68;48.792;9.164;2023-06-14T07:25:33;18.30;64.80
152;DHT22;68;48.792;9.164;2023-06-14T07:28:00;18.50;66.00
152;DHT22;68;48.792;9.164;2023-06-14T07:30:27;18.40;63.30
152;DHT22;68;48.792;9.164;2023-06-14T07:32:55;18.40;64.00
152;DHT22;68;48.792;9.164;2023-06-14T07:35:22;18.40;64.00
152;DHT22;68;48.792;9.164;2023-06-14T07:37:49;18.50;64.60
152;DHT22;68;48.792;9.164;2023-06-14T07:40:17;18.50;62.20
152;DHT22;68;48.792;9.164;2023-06-14T07:42:44;18.60;63.00
152;DHT22;68;48.792;9.164;2023-06-14T07:45:13;18.60;63.50
152;DHT22;68;48.792;9.164;2023-06-14T07:47:39;18.90;62.40
152;DHT22;68;48.792;9.164;2023-06-14T07:50:07;19.00;63.20
152;DHT22;68;48.792;9.164;2023-06-14T07:52:33;19.00;62.40
152;DHT22;68;48.792;9.164;2023-06-14T07:55:00;18.80;63.50
152;DHT22;68;48.792;9.164;2023-06-14T07:57:28;19.00;64.10
152;DHT22;68;48.792;9.164;2023-06-14T07:59:55;19.20;62.80
152;DHT22;68;48.792;9.164;2023-06-14T08:02:22;19.10;62.20
152;DHT22;68;48.792;9.164;2023-06-14T08:04:49;19.20;63.30
152;DHT22;68;48.792;9.164;2023-06-14T08:07:16;19.40;63.10
152;DHT22;68;48.792;9.164;2023-06-14T08:09:42;19.40;62.10
152;DHT22;68;48.792;9.164;2023-06-14T08:12:10;19.50;62.80
152;DHT22;68;48.792;9.164;2023-06-14T08:14:39;19.50;62.40
152;DHT22;68;48.792;9.164;2023-06-14T08:17:05;19.80;63.30
152;DHT22;68;48.792;9.164;2023-06-14T08:19:32;19.90;62.50
152;DHT22;68;48.792;9.164;2023-06-14T08:21:59;19.90;63.60
152;DHT22;68;48.792;9.164;2023-06-14T08:24:26;20.00;63.30
152;DHT22;68;48.792;9.164;2023-06-14T08:26:53;20.00;62.60
152;DHT22;68;48.792;9.164;2023-06-14T08:29:20;19.90;62.40
152;DHT22;68;48.792;9.164;2023-06-14T08:31:48;19.80;63.60
152;DHT22;68;48.792;9.164;2023-06-14T08:34:15;19.70;63.80
152;DHT22;68;48.792;9.164;2023-06-14T08:36:42;19.70;65.00
152;DHT22;68;48.792;9.164;2023-06-14T08:39:08;19.90;64.60
152;DHT22;68;48.792;9.164;2023-06-14T08:41:36;20.20;62.80
152;DHT22;68;48.792;9.164;2023-06-14T08:44:03;20.30;62.90
152;DHT22;68;48.792;9.164;2023-06-14T08:46:32;20.20;62.20
152;DHT22;68;48.792;9.164;2023-06-14T08:49:01;20.10;62.60
152;DHT22;68;48.792;9.164;2023-06-14T08:51:30;20.20;62.50
152;DHT22;68;48.792;9.164;2023-06-14T08:53:59;20.30;61.50
152;DHT22;68;48.792;9.164;2023-06-14T08:56:28;20.50;62.90
152;DHT22;68;48.792;9.164;2023-06-14T08:58:56;20.60;63.20
152;DHT22;68;48.792;9.164;2023-06-14T09:01:23;20.80;61.30
152;DHT22;68;48.792;9.164;2023-06-14T09:03:51;20.80;61.40
152;DHT22;68;48.792;9.164;2023-06-14T09:06:21;20.90;62.50
152;DHT22;68;48.792;9.164;2023-06-14T09:08:48;21.10;61.60
152;DHT22;68;48.792;9.164;2023-06-14T09:11:16;21.10;60.40
152;DHT22;68;48.792;9.164;2023-06-14T09:13:44;21.30;62.10
152;DHT22;68;48.792;9.164;2023-06-14T09:16:12;21.30;60.00
152;DHT22;68;48.792;9.164;2023-06-14T09:18:40;21.40;60.70
152;DHT22;68;48.792;9.164;2023-06-14T09:21:10;21.30;59.70
152;DHT22;68;48.792;9.164;2023-06-14T09:23:38;21.70;60.40
152;DHT22;68;48.792;9.164;2023-06-14T09:26:07;21.80;59.30
152;DHT22;68;48.792;9.164;2023-06-14T09:28:34;21.60;58.90
152;DHT22;68;48.792;9.164;2023-06-14T09:31:01;21.80;58.90
152;DHT22;68;48.792;9.164;2023-06-14T09:33:28;21.60;59.60
152;DHT22;68;48.792;9.164;2023-06-14T09:35:55;21.60;59.80
152;DHT22;68;48.792;9.164;2023-06-14T09:38:21;21.50;59.20
152;DHT22;68;48.792;9.164;2023-06-14T09:40:51;21.80;59.90
152;DHT22;68;48.792;9.164;2023-06-14T09:43:18;21.90;58.00
152;DHT22;68;48.792;9.164;2023-06-14T09:45:47;21.90;57.80
152;DHT22;68;48.792;9.164;2023-06-14T09:48:14;21.80;58.40
152;DHT22;68;48.792;9.164;2023-06-14T09:50:45;21.70;58.30
152;DHT22;68;48.792;9.164;2023-06-14T09:53:12;21.80;57.70
152;DHT22;68;48.792;9.164;2023-06-14T09:55:40;21.90;57.30
152;DHT22;68;48.792;9.164;2023-06-14T09:58:10;22.00;57.20
152;DHT22;68;48.792;9.164;2023-06-14T10:00:39;22.00;56.30
152;DHT22;68;48.792;9.164;2023-06-14T10:03:14;22.20;57.20
152;DHT22;68;48.792;9.164;2023-06-14T10:05:45;22.00;57.80
152;DHT22;68;48.792;9.164;2023-06-14T10:08:14;22.10;58.90
152;DHT22;68;48.792;9.164;2023-06-14T10:10:43;22.30;57.30
152;DHT22;68;48.792;9.164;2023-06-14T10:13:11;22.60;57.00
152;DHT22;68;48.792;9.164;2023-06-14T10:15:47;22.90;55.60
152;DHT22;68;48.792;9.164;2023-06-14T10:18:21;23.00;53.00
152;DHT22;68;48.792;9.164;2023-06-14T10:20:55;23.20;53.40
152;DHT22;68;48.792;9.164;2023-06-14T10:23:25;22.90;52.20
152;DHT22;68;48.792;9.164;2023-06-14T10:25:56;22.40;52.30
152;DHT22;68;48.792;9.164;2023-06-14T10:28:24;22.40;53.70
152;DHT22;68;48.792;9.164;2023-06-14T10:31:12;22.60;53.20
152;DHT22;68;48.792;9.164;2023-06-14T10:33:48;22.90;53.80
152;DHT22;68;48.792;9.164;2023-06-14T10:36:26;22.40;55.50
152;DHT22;68;48.792;9.164;2023-06-14T10:38:58;22.30;56.30
152;DHT22;68;48.792;9.164;2023-06-14T10:41:26;22.30;55.40
152;DHT22;68;48.792;9.164;2023-06-14T10:46:52;22.50;54.30
152;DHT22;68;48.792;9.164;2023-06-14T10:49:20;22.90;54.50
152;DHT22;68;48.792;9.164;2023-06-14T10:51:50;23.10;52.20
152;DHT22;68;48.792;9.164;2023-06-14T10:54:20;22.60;52.40
152;DHT22;68;48.792;9.164;2023-06-14T10:56:49;22.70;52.50
152;DHT22;68;48.792;9.164;2023-06-14T10:59:19;22.90;54.10
152;DHT22;68;48.792;9.164;2023-06-14T11:01:58;23.40;51.70
152;DHT22;68;48.792;9.164;2023-06-14T11:04:47;23.50;53.70
152;DHT22;68;48.792;9.164;2023-06-14T11:07:35;23.40;51.80
152;DHT22;68;48.792;9.164;2023-06-14T11:10:12;23.30;51.90
152;DHT22;68;48.792;9.164;2023-06-14T11:12:45;23.80;52.90
152;DHT22;68;48.792;9.164;2023-06-14T11:15:15;24.00;49.90
152;DHT22;68;48.792;9.164;2023-06-14T11:17:50;23.70;49.70
152;DHT22;68;48.792;9.164;2023-06-14T11:20:19;23.90;50.00
152;DHT22;68;48.792;9.164;2023-06-14T11:22:45;23.90;50.60
152;DHT22;68;48.792;9.164;2023-06-14T11:25:12;24.30;49.20
152;DHT22;68;48.792;9.164;2023-06-14T11:27:41;24.40;47.10
152;DHT22;68;48.792;9.164;2023-06-14T11:30:09;24.90;47.20
152;DHT22;68;48.792;9.164;2023-06-14T11:32:38;24.40;47.40
152;DHT22;68;48.792;9.164;2023-06-14T11:35:05;24.80;47.50
152;DHT22;68;48.792;9.164;2023-06-14T11:37:34;25.30;45.90
152;DHT22;68;48.792;9.164;2023-06-14T11:40:03;25.30;47.50
152;DHT22;68;48.792;9.164;2023-06-14T11:42:31;25.90;44.70
152;DHT22;68;48.792;9.164;2023-06-14T11:44:58;26.70;44.20
152;DHT22;68;48.792;9.164;2023-06-14T11:47:31;26.60;44.90
152;DHT22;68;48.792;9.164;2023-06-14T11:50:00;26.20;44.60
152;DHT22;68;48.792;9.164;2023-06-14T11:52:27;25.90;45.50
152;DHT22;68;48.792;9.164;2023-06-14T11:54:54;25.50;47.40
152;DHT22;68;48.792;9.164;2023-06-14T11:57:21;24.90;47.40
152;DHT22;68;48.792;9.164;2023-06-14T11:59:48;25.20;47.10
152;DHT22;68;48.792;9.164;2023-06-14T12:02:16;24.90;47.10
152;DHT22;68;48.792;9.164;2023-06-14T12:04:43;24.80;47.30
152;DHT22;68;48.792;9.164;2023-06-14T12:07:12;25.20;47.20
152;DHT22;68;48.792;9.164;2023-06-14T12:09:40;25.40;47.00
152;DHT22;68;48.792;9.164;2023-06-14T12:12:09;25.40;46.20
152;DHT22;68;48.792;9.164;2023-06-14T12:14:36;25.80;45.70
152;DHT22;68;48.792;9.164;2023-06-14T12:17:07;25.90;46.90
152;DHT22;68;48.792;9.164;2023-06-14T12:19:41;26.10;44.40
152;DHT22;68;48.792;9.164;2023-06-14T12:22:11;26.50;45.10
152;DHT22;68;48.792;9.164;2023-06-14T12:24:38;26.60;43.80
152;DHT22;68;48.792;9.164;2023-06-14T12:27:05;26.00;44.90
152;DHT22;68;48.792;9.164;2023-06-14T12:29:32;25.40;46.10
152;DHT22;68;48.792;9.164;2023-06-14T12:31:59;25.30;47.30
152;DHT22;68;48.792;9.164;2023-06-14T12:34:26;25.20;46.60
152;DHT22;68;48.792;9.164;2023-06-14T12:36:53;24.60;46.60
152;DHT22;68;48.792;9.164;2023-06-14T12:39:22;24.20;48.90
152;DHT22;68;48.792;9.164;2023-06-14T12:41:50;24.30;46.50
152;DHT22;68;48.792;9.164;2023-06-14T12:44:16;24.60;49.30
152;DHT22;68;48.792;9.164;2023-06-14T12:46:43;24.80;48.80
152;DHT22;68;48.792;9.164;2023-06-14T12:49:11;24.80;46.70
152;DHT22;68;48.792;9.164;2023-06-14T12:51:39;25.20;46.70
152;DHT22;68;48.792;9.164;2023-06-14T12:54:06;25.20;47.40
152;DHT22;68;48.792;9.164;2023-06-14T12:56:34;25.50;47.70
152;DHT22;68;48.792;9.164;2023-06-14T12:59:00;25.30;46.70
152;DHT22;68;48.792;9.164;2023-06-14T13:01:27;25.30;47.40
152;DHT22;68;48.792;9.164;2023-06-14T13:03:54;24.70;45.00
152;DHT22;68;48.792;9.164;2023-06-14T13:06:21;24.50;46.90
152;DHT22;68;48.792;9.164;2023-06-14T13:08:48;24.50;46.80
152;DHT22;68;48.792;9.164;2023-06-14T13:11:15;24.50;46.70
152;DHT22;68;48.792;9.164;2023-06-14T13:13:43;24.40;48.80
152;DHT22;68;48.792;9.164;2023-06-14T13:16:10;24.40;47.30
152;DHT22;68;48.792;9.164;2023-06-14T13:18:38;24.70;46.60
152;DHT22;68;48.792;9.164;2023-06-14T13:21:05;24.60;46.50
152;DHT22;68;48.792;9.164;2023-06-14T13:23:32;24.80;45.80
152;DHT22;68;48.792;9.164;2023-06-14T13:25:59;25.10;46.90
152;DHT22;68;48.792;9.164;2023-06-14T13:28:25;25.10;45.40
152;DHT22;68;48.792;9.164;2023-06-14T13:30:54;25.20;46.70
152;DHT22;68;48.792;9.164;2023-06-14T13:33:21;25.60;46.60
152;DHT22;68;48.792;9.164;2023-06-14T13:35:49;25.70;45.90
152;DHT22;68;48.792;9.164;2023-06-14T13:38:18;25.60;45.80
152;DHT22;68;48.792;9.164;2023-06-14T13:40:45;25.40;46.10
152;DHT22;68;48.792;9.164;2023-06-14T13:43:11;25.00;45.70
152;DHT22;68;48.792;9.164;2023-06-14T13:45:38;24.50;46.60
152;DHT22;68;48.792;9.164;2023-06-14T13:48:06;24.40;47.60
152;DHT22;68;48.792;9.164;2023-06-14T13:50:33;24.30;48.10
152;DHT22;68;48.792;9.164;2023-06-14T13:53:00;24.40;48.10
152;DHT22;68;48.792;9.164;2023-06-14T13:55:27;24.60;48.20
152;DHT22;68;48.792;9.164;2023-06-14T13:57:54;25.00;46.70
152;DHT22;68;48.792;9.164;2023-06-14T14:00:22;24.80;46.80
152;DHT22;68;48.792;9.164;2023-06-14T14:02:49;24.90;48.20
152;DHT22;68;48.792;9.164;2023-06-14T14:05:17;24.90;47.10
152;DHT22;68;48.792;9.164;2023-06-14T14:07:46;25.10;47.10
152;DHT22;68;48.792;9.164;2023-06-14T14:10:13;24.90;46.70
152;DHT22;68;48.792;9.164;2023-06-14T14:12:40;24.80;46.40
152;DHT22;68;48.792;9.164;2023-06-14T14:15:07;24.40;46.70
152;DHT22;68;48.792;9.164;2023-06-14T14:17:38;24.40;46.70
152;DHT22;68;48.792;9.164;2023-06-14T14:20:05;24.40;48.60
152;DHT22;68;48.792;9.164;2023-06-14T14:22:34;24.30;48.10
152;DHT22;68;48.792;9.164;2023-06-14T14:25:01;24.00;48.00
152;DHT22;68;48.792;9.164;2023-06-14T14:27:28;24.00;48.70
152;DHT22;68;48.792;9.164;2023-06-14T14:29:54;24.00;50.70
152;DHT22;68;48.792;9.164;2023-06-14T14:32:21;24.00;49.60
152;DHT22;68;48.792;9.164;2023-06-14T14:34:48;24.10;49.80
152;DHT22;68;48.792;9.164;2023-06-14T14:37:14;24.10;50.50
152;DHT22;68;48.792;9.164;2023-06-14T14:39:44;24.10;50.10
152;DHT22;68;48.792;9.164;2023-06-14T14:42:11;24.40;49.80
152;DHT22;68;48.792;9.164;2023-06-14T14:44:38;24.40;49.50
152;DHT22;68;48.792;9.164;2023-06-14T14:47:05;24.50;49.80
152;DHT22;68;48.792;9.164;2023-06-14T14:49:32;24.30;49.60
152;DHT22;68;48.792;9.164;2023-06-14T14:51:59;24.30;48.00
152;DHT22;68;48.792;9.164;2023-06-14T14:54:26;24.40;50.00
152;DHT22;68;48.792;9.164;2023-06-14T14:56:56;24.30;48.30
152;DHT22;68;48.792;9.164;2023-06-14T14:59:22;24.20;48.30
152;DHT22;68;48.792;9.164;2023-06-14T15:01:49;24.10;48.80
152;DHT22;68;48.792;9.164;2023-06-14T15:04:16;24.20;47.90
152;DHT22;68;48.792;9.164;2023-06-14T15:06:43;24.00;46.50
152;DHT22;68;48.792;9.164;2023-06-14T15:09:09;24.30;47.70
152;DHT22;68;48.792;9.164;2023-06-14T15:11:36;24.20;47.20
152;DHT22;68;48.792;9.164;2023-06-14T15:14:04;24.30;47.70
152;DHT22;68;48.792;9.164;2023-06-14T15:16:31;24.10;48.50
152;DHT22;68;48.792;9.164;2023-06-14T15:18:58;23.90;49.60
152;DHT22;68;48.792;9.164;2023-06-14T15:21:24;23.90;49.70
152;DHT22;68;48.792;9.164;2023-06-14T15:23:52;23.90;50.00
152;DHT22;68;48.792;9.164;2023-06-14T15:26:19;23.80;49.70
152;DHT22;68;48.792;9.164;2023-06-14T15:28:46;23.70;49.70
152;DHT22;68;48.792;9.164;2023-06-14T15:31:14;23.50;49.80
152;DHT22;68;48.792;9.164;2023-06-14T15:33:41;23.30;50.20
152;DHT22;68;48.792;9.164;2023-06-14T15:36:07;23.40;50.20
152;DHT22;68;48.792;9.164;2023-06-14T15:38:35;23.50;50.00
152;DHT22;68;48.792;9.164;2023-06-14T15:41:02;23.80;49.70
152;DHT22;68;48.792;9.164;2023-06-14T15:43:29;23.90;49.70
152;DHT22;68;48.792;9.164;2023-06-14T15:45:56;23.90;49.70
152;DHT22;68;48.792;9.164;2023-06-14T15:48:24;23.50;50.20
152;DHT22;68;48.792;9.164;2023-06-14T15:50:51;23.30;51.00
152;DHT22;68;48.792;9.164;2023-06-14T15:53:18;23.30;50.40
152;DHT22;68;48.792;9.164;2023-06-14T15:55:45;23.20;50.40
152;DHT22;68;48.792;9.164;2023-06-14T15:58:12;23.30;50.90
152;DHT22;68;48.792;9.164;2023-06-14T16:00:39;23.30;50.50
152;DHT22;68;48.792;9.164;2023-06-14T16:03:06;23.10;50.80
152;DHT22;68;48.792;9.164;2023-06-14T16:05:34;23.20;51.00
152;DHT22;68;48.792;9.164;2023-06-14T16:08:01;23.40;50.80
152;DHT22;68;48.792;9.164;2023-06-14T16:10:28;23.70;51.10
152;DHT22;68;48.792;9.164;2023-06-14T16:12:56;23.60;51.10
152;DHT22;68;48.792;9.164;2023-06-14T16:15:23;23.40;49.50
152;DHT22;68;48.792;9.164;2023-06-14T16:17:49;23.40;50.30
152;DHT22;68;48.792;9.164;2023-06-14T16:20:16;23.30;48.50
152;DHT22;68;48.792;9.164;2023-06-14T16:22:44;23.30;48.60
152;DHT22;68;48.792;9.164;2023-06-14T16:25:11;23.60;47.90
152;DHT22;68;48.792;9.164;2023-06-14T16:27:37;23.80;48.50
152;DHT22;68;48.792;9.164;2023-06-14T16:30:05;23.90;49.30
152;DHT22;68;48.792;9.164;2023-06-14T16:32:33;23.50;49.00
152;DHT22;68;48.792;9.164;2023-06-14T16:35:00;23.20;49.80
152;DHT22;68;48.792;9.164;2023-06-14T16:37:26;23.10;50.20
152;DHT22;68;48.792;9.164;2023-06-14T16:39:54;23.30;50.60
152;DHT22;68;48.792;9.164;2023-06-14T16:42:21;23.40;51.40
152;DHT22;68;48.792;9.164;2023-06-14T16:44:48;23.30;50.30
152;DHT22;68;48.792;9.164;2023-06-14T16:47:15;23.20;50.40
152;DHT22;68;48.792;9.164;2023-06-14T16:49:42;23.30;51.40
152;DHT22;68;48.792;9.164;2023-06-14T16:52:08;23.30;50.70
152;DHT22;68;48.792;9.164;2023-06-14T16:54:35;23.50;51.10
152;DHT22;68;48.792;9.164;2023-06-14T16:57:03;23.50;50.20
152;DHT22;68;48.792;9.164;2023-06-14T16:59:30;23.50;51.00